Time;durP1;ratioP1;P1;durP2;ratioP2;P2;SDS_P1;SDS_P2;PMS_P1;PMS_P2;Temp;Humidity;BMP_temperature;BMP_pressure;BME280_temperature;BME280_humidity;BME280_pressure;Samples;Min_cycle;Max_cycle;Signal;HPM_P1;HPM_P2
2022/01/20 00:01:54;;;;;;;3.67;3.20;;;;;;;4.24;70.83;95949.34;4386345;32;20280;-60
2022/01/20 00:23:14;;;;;;;3.27;2.97;;;;;;;4.10;71.07;95944.41;4379896;32;20344;-59
2022/01/20 00:26:16;;;;;;;3.30;3.10;;;;;;;4.19;70.94;95941.38;4362483;32;20303;-59
2022/01/20 00:28:45;;;;;;;3.27;3.07;;;;;;;4.16;70.60;95947.91;4354793;32;20280;-61
2022/01/20 00:33:56;;;;;;;3.50;3.20;;;;;;;4.18;70.83;95945.84;4359749;32;20283;-59
2022/01/20 00:39:00;;;;;;;3.33;3.03;;;;;;;4.37;69.92;95938.53;4365117;32;20335;-59
2022/01/20 00:41:29;;;;;;;2.97;2.53;;;;;;;4.44;70.57;95949.69;4368513;32;20276;-60
2022/01/20 00:43:57;;;;;;;2.77;2.57;;;;;;;4.30;70.32;95948.41;4351879;32;20252;-59
2022/01/20 00:46:22;;;;;;;2.53;2.40;;;;;;;4.40;69.78;95938.84;4356761;32;20295;-59
2022/01/20 00:48:49;;;;;;;3.53;3.00;;;;;;;4.39;69.97;95944.34;4395548;32;20289;-59
2022/01/20 00:51:16;;;;;;;3.57;3.27;;;;;;;4.33;70.05;95942.69;4367404;32;20180;-59
2022/01/20 00:53:44;;;;;;;3.57;3.27;;;;;;;4.28;70.36;95930.28;4370910;32;20372;-59
2022/01/20 00:56:14;;;;;;;2.90;2.70;;;;;;;4.27;70.72;95939.19;4383745;32;20297;-60
2022/01/20 00:58:40;;;;;;;3.33;3.03;;;;;;;4.18;70.35;95945.03;4393229;32;20288;-60
2022/01/20 01:01:07;;;;;;;3.10;2.90;;;;;;;4.24;70.58;95950.16;4378581;32;20351;-59
2022/01/20 01:03:33;;;;;;;2.77;2.53;;;;;;;4.23;70.46;95953.00;4368018;32;20288;-60
2022/01/20 01:08:39;;;;;;;3.03;2.83;;;;;;;4.48;69.80;95951.59;4370737;32;20310;-60
2022/01/20 01:11:05;;;;;;;3.17;2.97;;;;;;;4.28;70.21;95943.41;4375814;32;20280;-60
2022/01/20 01:13:31;;;;;;;2.90;2.70;;;;;;;4.24;70.73;95944.09;4387346;32;20391;-60
2022/01/20 01:15:56;;;;;;;3.27;3.07;;;;;;;4.14;70.38;95955.25;4389490;32;20276;-60
2022/01/20 01:21:29;;;;;;;3.03;2.70;;;;;;;4.41;70.21;95950.16;4362505;32;20199;-59
2022/01/20 01:23:58;;;;;;;3.07;2.87;;;;;;;4.27;70.08;95949.69;4332555;32;20276;-59
2022/01/20 01:26:27;;;;;;;2.80;2.57;;;;;;;4.20;70.57;95946.41;4330767;32;20282;-59
2022/01/20 01:28:56;;;;;;;3.23;2.80;;;;;;;4.20;70.61;95949.03;4307031;32;20193;-59
2022/01/20 01:31:32;;;;;;;4.03;2.73;;;;;;;4.41;69.84;95948.31;4350821;32;20296;-60
2022/01/20 01:34:03;;;;;;;3.23;2.93;;;;;;;4.49;69.55;95952.41;4323660;32;20332;-59
2022/01/20 01:36:33;;;;;;;3.93;2.83;;;;;;;4.46;69.58;95955.50;4333577;32;20305;-60
2022/01/20 01:38:59;;;;;;;3.17;2.97;;;;;;;4.40;70.39;95953.81;4354109;32;20312;-59
2022/01/20 01:41:33;;;;;;;5.17;2.83;;;;;;;4.49;69.89;95941.91;4355080;32;20296;-60
2022/01/20 01:44:05;;;;;;;3.00;2.80;;;;;;;4.34;69.89;95945.09;4347192;32;20285;-60
2022/01/20 01:46:32;;;;;;;3.20;3.00;;;;;;;4.33;70.02;95932.97;4331188;32;20297;-59
2022/01/20 01:48:59;;;;;;;3.43;3.07;;;;;;;4.41;70.43;95934.41;4335203;32;20324;-59
2022/01/20 01:51:27;;;;;;;3.00;2.80;;;;;;;4.33;70.36;95932.97;4322961;32;20340;-60
2022/01/20 01:53:54;;;;;;;2.60;2.40;;;;;;;4.18;70.43;95934.53;4340841;32;20296;-60
2022/01/20 01:56:21;;;;;;;3.10;2.90;;;;;;;4.26;70.38;95942.84;4374066;32;20312;-59
2022/01/20 01:58:46;;;;;;;3.27;3.07;;;;;;;4.29;70.58;95925.81;4368795;32;20281;-60
2022/01/20 02:01:12;;;;;;;2.53;2.33;;;;;;;4.22;70.74;95928.59;4371798;32;20288;-60
2022/01/20 02:03:46;;;;;;;2.60;2.40;;;;;;;4.24;70.02;95928.34;4372999;32;20192;-60
2022/01/20 02:09:18;;;;;;;2.40;2.20;;;;;;;4.45;69.52;95919.75;4381085;32;20306;-60
2022/01/20 02:19:58;;;;;;;2.93;2.70;;;;;;;4.42;70.39;95923.66;4373100;32;20306;-59
2022/01/20 02:22:25;;;;;;;2.33;2.13;;;;;;;4.52;69.02;95935.38;4376549;32;20295;-59
2022/01/20 02:24:52;;;;;;;3.00;2.80;;;;;;;4.33;69.77;95937.44;4363653;32;20281;-59
2022/01/20 02:27:17;;;;;;;2.43;2.23;;;;;;;4.29;70.03;95921.34;4359675;32;20311;-59
2022/01/20 02:29:44;;;;;;;2.60;2.40;;;;;;;4.23;70.60;95921.50;4369776;32;20271;-60
2022/01/20 02:32:14;;;;;;;2.80;2.60;;;;;;;4.33;70.91;95921.69;4374080;32;20193;-59
2022/01/20 02:34:40;;;;;;;2.90;2.37;;;;;;;4.33;70.57;95921.69;4349001;32;20288;-59
2022/01/20 02:37:10;;;;;;;2.93;2.73;;;;;;;4.26;71.86;95915.78;4391446;32;20300;-59
2022/01/20 02:44:54;;;;;;;2.47;2.37;;;;;;;4.20;75.26;95907.03;4382925;32;20261;-59
2022/01/20 02:47:22;;;;;;;2.67;2.50;;;;;;;4.23;75.73;95905.75;4368849;32;20410;-59
2022/01/20 02:49:51;;;;;;;5.63;2.70;;;;;;;3.92;78.11;95918.38;4368033;32;20268;-60
2022/01/20 02:52:21;;;;;;;2.77;2.57;;;;;;;4.02;76.77;95900.19;4390453;32;20272;-60
2022/01/20 02:54:46;;;;;;;3.40;2.40;;;;;;;4.02;76.31;95907.25;4381197;32;20271;-60
2022/01/20 02:57:14;;;;;;;3.13;2.90;;;;;;;3.96;76.17;95905.56;4396727;32;20295;-60
2022/01/20 02:59:43;;;;;;;2.90;2.70;;;;;;;3.86;76.86;95894.91;4374541;32;20180;-59
2022/01/20 03:02:10;;;;;;;2.77;2.57;;;;;;;4.07;78.02;95897.62;4361455;32;20280;-60
2022/01/20 03:04:37;;;;;;;2.83;2.70;;;;;;;4.11;76.01;95901.37;4373573;32;20318;-60
2022/01/20 03:07:05;;;;;;;2.90;2.70;;;;;;;3.91;77.44;95892.37;4380327;32;20277;-59
2022/01/20 03:09:30;;;;;;;2.83;2.63;;;;;;;4.02;78.58;95886.25;4375797;32;20334;-59
2022/01/20 03:11:57;;;;;;;3.00;2.80;;;;;;;3.80;78.08;95875.66;4368908;32;20288;-59
2022/01/20 03:14:24;;;;;;;2.60;2.40;;;;;;;3.90;78.38;95886.34;4373384;32;20189;-59
2022/01/20 03:16:50;;;;;;;3.23;2.93;;;;;;;3.85;77.87;95877.56;4373097;32;20353;-60
2022/01/20 03:19:17;;;;;;;2.60;2.40;;;;;;;3.76;77.21;95880.56;4383706;32;20315;-60
2022/01/20 03:21:44;;;;;;;2.90;2.70;;;;;;;4.02;77.05;95868.69;4388752;32;20366;-60
2022/01/20 03:24:11;;;;;;;2.70;2.50;;;;;;;4.19;75.95;95875.75;4370024;32;20398;-60
2022/01/20 03:26:37;;;;;;;3.13;2.63;;;;;;;4.18;75.96;95872.34;4354221;32;20284;-60
2022/01/20 03:29:04;;;;;;;3.20;2.90;;;;;;;3.96;76.32;95880.13;4389321;32;20276;-60
2022/01/20 03:31:32;;;;;;;2.70;2.50;;;;;;;3.98;76.81;95874.62;4379148;32;20308;-60
2022/01/20 03:33:59;;;;;;;3.60;2.93;;;;;;;4.00;77.07;95870.75;4373666;32;20276;-60
2022/01/20 03:36:25;;;;;;;2.77;2.57;;;;;;;3.73;78.50;95865.31;4365514;32;20326;-59
2022/01/20 03:38:51;;;;;;;2.20;2.10;;;;;;;3.71;79.02;95870.00;4384853;32;20280;-60
2022/01/20 03:41:17;;;;;;;2.40;2.30;;;;;;;3.87;79.28;95878.94;4353353;32;20277;-60
2022/01/20 03:43:42;;;;;;;2.73;2.53;;;;;;;3.88;79.90;95883.16;4365363;32;20197;-60
2022/01/20 03:46:19;;;;;;;2.93;2.63;;;;;;;3.82;80.62;95901.66;4390395;32;20345;-59
2022/01/20 03:48:51;;;;;;;2.90;2.70;;;;;;;3.76;81.11;95898.13;4380222;32;20203;-61
2022/01/20 03:51:23;;;;;;;3.33;3.13;;;;;;;3.80;81.31;95891.41;4379406;32;20276;-59
2022/01/20 03:53:54;;;;;;;2.90;2.70;;;;;;;3.61;82.69;95876.91;4360928;32;20288;-59
2022/01/20 03:56:22;;;;;;;2.70;2.50;;;;;;;3.65;84.41;95891.13;4375003;32;20378;-59
2022/01/20 03:58:48;;;;;;;2.93;2.37;;;;;;;3.76;84.12;95903.38;4374468;32;20280;-59
2022/01/20 04:01:15;;;;;;;2.97;2.73;;;;;;;3.67;84.10;95902.19;4386455;32;20276;-60
2022/01/20 04:03:42;;;;;;;2.73;2.53;;;;;;;3.47;84.71;95901.81;4396051;32;20287;-60
2022/01/20 04:06:07;;;;;;;3.10;2.80;;;;;;;3.29;85.80;95897.56;4379937;32;20269;-60
2022/01/20 04:08:38;;;;;;;6.73;2.87;;;;;;;2.93;87.50;95911.75;4377630;32;20288;-59
2022/01/20 04:11:30;;;;;;;2.97;2.77;;;;;;;3.24;87.70;95919.22;4388802;32;20196;-59
2022/01/20 04:13:57;;;;;;;3.03;2.83;;;;;;;3.16;88.46;95914.31;4373417;32;20295;-60
2022/01/20 04:16:37;;;;;;;2.93;2.73;;;;;;;3.14;88.88;95918.19;4376614;32;20370;-60
2022/01/20 04:19:10;;;;;;;3.17;2.97;;;;;;;3.06;89.10;95916.75;4361729;32;20277;-59
2022/01/20 04:21:38;;;;;;;2.73;2.53;;;;;;;2.89;90.20;95921.13;4332905;32;20273;-59
2022/01/20 04:24:05;;;;;;;2.70;2.50;;;;;;;2.79;91.00;95918.25;4362413;32;20287;-59
2022/01/20 04:26:35;;;;;;;3.60;3.30;;;;;;;2.82;90.83;95920.44;4367328;32;20464;-60
2022/01/20 04:29:01;;;;;;;2.97;2.57;;;;;;;2.84;90.98;95923.63;4386329;32;20315;-60
2022/01/20 04:31:30;;;;;;;3.27;2.97;;;;;;;2.82;91.51;95908.13;4367961;32;20289;-60
2022/01/20 04:33:57;;;;;;;3.37;3.17;;;;;;;2.95;90.78;95894.78;4376805;32;20272;-59
2022/01/20 04:36:25;;;;;;;2.97;2.77;;;;;;;2.74;91.60;95908.47;4386272;32;20322;-60
2022/01/20 04:38:53;;;;;;;3.10;2.80;;;;;;;2.74;91.62;95904.03;4388860;32;20291;-60
2022/01/20 04:41:21;;;;;;;3.30;3.00;;;;;;;2.86;91.80;95905.84;4364270;32;20287;-60
2022/01/20 04:43:48;;;;;;;3.00;2.80;;;;;;;2.93;91.74;95893.41;4364272;32;20283;-60
2022/01/20 04:57:06;;;;;;;3.13;2.93;;;;;;;2.47;94.08;95902.13;4356001;32;20321;-60
2022/01/20 04:59:31;;;;;;;3.53;3.23;;;;;;;2.53;93.66;95902.00;4383877;32;20212;-59
2022/01/20 05:01:56;;;;;;;3.70;3.33;;;;;;;2.67;94.18;95903.38;4380584;32;20310;-57
2022/01/20 05:04:24;;;;;;;3.70;3.40;;;;;;;2.53;93.69;95904.59;4378227;32;20303;-59
2022/01/20 05:06:53;;;;;;;3.30;3.00;;;;;;;2.60;94.03;95907.91;4393863;32;20188;-59
2022/01/20 05:09:20;;;;;;;3.07;2.87;;;;;;;2.60;94.12;95905.28;4336063;32;20363;-60
2022/01/20 05:11:51;;;;;;;3.40;3.20;;;;;;;2.60;94.20;95907.91;4355449;32;20284;-60
2022/01/20 05:14:17;;;;;;;3.73;3.43;;;;;;;2.64;94.11;95911.69;4388524;32;20276;-60
2022/01/20 05:16:43;;;;;;;3.33;3.13;;;;;;;2.53;95.00;95904.59;4391089;32;20280;-60
2022/01/20 05:19:10;;;;;;;3.57;3.37;;;;;;;2.63;94.50;95909.28;4368721;32;20333;-60
2022/01/20 05:21:35;;;;;;;4.20;3.90;;;;;;;2.66;94.58;95899.16;4377769;32;20188;-60
2022/01/20 05:24:03;;;;;;;3.97;3.67;;;;;;;2.81;93.88;95895.25;4356257;32;20405;-60
2022/01/20 05:26:29;;;;;;;4.07;3.57;;;;;;;2.65;94.13;95894.94;4363692;32;20184;-60
2022/01/20 05:28:55;;;;;;;4.27;3.97;;;;;;;2.55;94.39;95902.56;4386512;32;20284;-59
2022/01/20 05:31:21;;;;;;;4.10;3.80;;;;;;;2.85;94.02;95893.78;4360595;32;20236;-60
2022/01/20 05:33:47;;;;;;;4.30;3.63;;;;;;;2.94;93.62;95897.62;4376636;32;20288;-61
2022/01/20 05:36:14;;;;;;;4.63;4.23;;;;;;;2.92;93.24;95889.97;4383943;32;20199;-61
2022/01/20 05:38:39;;;;;;;4.60;4.20;;;;;;;2.80;93.81;95896.28;4384567;32;20227;-60
2022/01/20 05:41:06;;;;;;;4.43;4.13;;;;;;;2.60;94.43;95894.81;4357129;32;20288;-60
2022/01/20 05:43:32;;;;;;;5.17;4.80;;;;;;;2.67;94.39;95890.28;4381109;32;20280;-60
2022/01/20 05:45:59;;;;;;;3.90;3.60;;;;;;;2.58;94.91;95896.88;4369154;32;20288;-60
2022/01/20 05:48:36;;;;;;;4.00;3.70;;;;;;;2.72;95.03;95885.13;4387807;32;20264;-60
2022/01/20 05:51:05;;;;;;;4.37;4.07;;;;;;;2.73;95.05;95885.91;4377328;32;20370;-60
2022/01/20 05:53:32;;;;;;;4.33;4.03;;;;;;;2.67;95.15;95886.84;4374785;32;20324;-60
2022/01/20 05:56:18;;;;;;;4.50;4.20;;;;;;;2.70;94.76;95887.16;4346900;32;20285;-61
2022/01/20 05:58:45;;;;;;;4.53;4.23;;;;;;;2.66;95.21;95886.06;4332961;32;20276;-61
2022/01/20 06:01:10;;;;;;;4.37;4.07;;;;;;;2.63;94.75;95899.59;4365290;32;20276;-60
2022/01/20 06:03:36;;;;;;;4.80;4.40;;;;;;;2.58;95.31;95902.09;4379262;32;20318;-60
2022/01/20 06:06:08;;;;;;;4.47;4.17;;;;;;;2.67;95.26;95911.22;4354443;32;20294;-60
2022/01/20 06:08:35;;;;;;;5.13;4.73;;;;;;;2.60;95.36;95907.13;4383504;32;20210;-60
2022/01/20 06:11:09;;;;;;;6.50;4.40;;;;;;;2.84;94.41;95900.84;4373506;32;20338;-60
2022/01/20 06:13:34;;;;;;;4.60;4.30;;;;;;;2.86;94.34;95890.94;4355929;32;20277;-60
2022/01/20 06:16:03;;;;;;;4.40;4.10;;;;;;;2.79;94.53;95907.78;4377966;32;20405;-60
2022/01/20 06:18:30;;;;;;;5.17;4.67;;;;;;;2.70;95.03;95908.13;4351340;32;20188;-60
2022/01/20 06:20:57;;;;;;;4.37;3.97;;;;;;;2.77;95.00;95894.91;4358665;32;20297;-60
2022/01/20 06:23:25;;;;;;;4.40;4.10;;;;;;;2.85;93.99;95894.56;4371131;32;20304;-60
2022/01/20 06:25:51;;;;;;;4.67;4.27;;;;;;;2.66;94.83;95903.59;4380208;32;20292;-60
2022/01/20 06:28:20;;;;;;;4.37;3.97;;;;;;;2.75;95.06;95916.09;4380683;32;20290;-61
2022/01/20 06:30:45;;;;;;;4.17;3.87;;;;;;;2.71;94.70;95920.19;4365771;32;20280;-60
2022/01/20 06:33:12;;;;;;;4.37;3.97;;;;;;;2.86;94.18;95911.09;4371194;32;20332;-61
2022/01/20 06:35:38;;;;;;;4.50;4.10;;;;;;;2.95;93.99;95902.63;4360450;32;20204;-60
2022/01/20 06:38:05;;;;;;;3.93;3.50;;;;;;;2.90;94.16;95912.22;4391843;32;20303;-60
2022/01/20 06:40:32;;;;;;;4.53;4.13;;;;;;;3.05;93.47;95905.47;4380511;32;20288;-60
2022/01/20 06:42:59;;;;;;;4.10;3.80;;;;;;;2.88;93.13;95914.28;4382419;32;20302;-60
2022/01/20 06:45:25;;;;;;;4.20;3.90;;;;;;;2.69;94.12;95909.19;4377851;32;20379;-60
2022/01/20 06:47:51;;;;;;;4.30;3.93;;;;;;;2.68;94.69;95907.59;4375221;32;20352;-60
2022/01/20 06:50:17;;;;;;;4.40;4.10;;;;;;;2.78;94.57;95908.81;4363513;32;20207;-60
2022/01/20 06:52:46;;;;;;;4.30;4.00;;;;;;;2.65;94.07;95897.56;4380732;32;20317;-60
2022/01/20 06:55:13;;;;;;;4.23;3.93;;;;;;;2.78;94.37;95899.13;4384293;32;20280;-61
2022/01/20 06:57:41;;;;;;;4.33;4.03;;;;;;;2.78;93.30;95893.91;4383748;32;20276;-60
2022/01/20 07:00:15;;;;;;;4.33;3.93;;;;;;;2.69;94.08;95905.75;4389863;32;20272;-60
2022/01/20 07:02:43;;;;;;;4.47;4.03;;;;;;;2.64;94.05;95903.03;4357143;32;20276;-60
2022/01/20 07:05:13;;;;;;;3.90;3.70;;;;;;;2.80;93.64;95901.53;4382561;32;20333;-60
2022/01/20 07:07:39;;;;;;;3.77;3.57;;;;;;;2.65;93.69;95905.41;4380516;32;20345;-60
2022/01/20 07:10:06;;;;;;;4.03;3.73;;;;;;;2.67;93.72;95903.38;4364649;32;20285;-60
2022/01/20 07:12:31;;;;;;;3.80;3.60;;;;;;;2.68;93.92;95904.97;4364146;32;20368;-60
2022/01/20 07:14:58;;;;;;;4.60;3.87;;;;;;;2.69;93.56;95918.84;4368920;32;20314;-60
2022/01/20 07:17:24;;;;;;;3.67;3.47;;;;;;;2.60;93.97;95907.13;4372656;32;20188;-60
2022/01/20 07:19:52;;;;;;;4.03;3.77;;;;;;;2.75;93.65;95905.63;4385237;32;20406;-60
2022/01/20 07:22:19;;;;;;;19.30;4.23;;;;;;;2.75;93.75;95904.81;4388470;32;20195;-59
2022/01/20 07:24:44;;;;;;;7.63;4.47;;;;;;;7.32;100.00;95890.41;4344240;32;20281;-60
2022/01/20 07:27:09;;;;;;;4.50;2.60;;;;;;;8.65;90.33;95881.66;4355039;32;20453;-60
2022/01/20 07:29:35;;;;;;;2.27;2.17;;;;;;;9.88;74.04;95883.56;4365957;32;20194;-60
2022/01/20 07:32:07;;;;;;;3.10;2.20;;;;;;;10.49;68.77;95893.75;4381255;32;20232;-60
2022/01/20 07:34:34;;;;;;;2.07;1.97;;;;;;;10.88;61.78;95895.53;4340460;32;20189;-60
2022/01/20 07:37:00;;;;;;;3.30;2.13;;;;;;;11.14;62.68;95896.84;4379893;32;20285;-60
2022/01/20 07:39:26;;;;;;;2.00;1.90;;;;;;;10.82;61.30;95905.41;4373008;32;20215;-60
2022/01/20 07:41:52;;;;;;;3.23;2.50;;;;;;;11.26;62.87;95905.22;4354498;32;20192;-59
2022/01/20 07:44:20;;;;;;;2.70;2.27;;;;;;;11.50;62.73;95913.19;4372802;32;20195;-60
2022/01/20 07:46:47;;;;;;;3.20;1.97;;;;;;;11.54;59.69;95908.87;4374307;32;20188;-59
2022/01/20 07:49:16;;;;;;;2.97;1.70;;;;;;;11.49;57.92;95916.91;4388707;32;20204;-60
2022/01/20 07:51:45;;;;;;;2.00;1.90;;;;;;;11.77;56.98;95912.62;4369450;32;20207;-60
2022/01/20 07:54:10;;;;;;;1.70;1.60;;;;;;;11.48;56.73;95911.88;4370497;32;20195;-59
2022/01/20 07:56:36;;;;;;;2.13;2.03;;;;;;;11.54;56.46;95916.84;4371662;32;20208;-60
2022/01/20 07:59:03;;;;;;;1.87;1.77;;;;;;;11.78;55.25;95908.87;4367356;32;20328;-59
2022/01/20 08:01:29;;;;;;;1.80;1.70;;;;;;;11.81;55.53;95912.84;4376140;32;20204;-59
2022/01/20 08:03:55;;;;;;;2.13;2.00;;;;;;;11.70;55.62;95915.59;4354453;32;20204;-60
2022/01/20 08:06:22;;;;;;;1.63;1.53;;;;;;;11.88;54.80;95923.87;4378419;32;20250;-59
2022/01/20 08:08:50;;;;;;;2.30;2.20;;;;;;;11.78;54.71;95921.38;4377296;32;20197;-60
2022/01/20 08:11:22;;;;;;;1.63;1.53;;;;;;;11.70;55.12;95925.44;4387722;32;20188;-59
2022/01/20 08:13:49;;;;;;;1.60;1.50;;;;;;;11.50;55.30;95933.63;4365712;32;20256;-60
2022/01/20 08:16:15;;;;;;;2.00;1.83;;;;;;;11.55;54.84;95941.56;4364539;32;20194;-60
2022/01/20 08:18:41;;;;;;;1.40;1.30;;;;;;;11.17;55.29;95943.31;4386139;32;20188;-60
2022/01/20 08:21:06;;;;;;;1.67;1.57;;;;;;;11.14;55.50;95944.66;4398661;32;20214;-60
2022/01/20 08:23:32;;;;;;;1.63;1.53;;;;;;;11.33;55.58;95948.16;4380689;32;20286;-60
2022/01/20 08:25:59;;;;;;;1.60;1.50;;;;;;;11.33;55.46;95944.72;4380243;32;20185;-59
2022/01/20 08:28:25;;;;;;;1.60;1.50;;;;;;;10.89;56.90;95948.34;4368472;32;20191;-60
2022/01/20 08:30:51;;;;;;;10.63;2.57;;;;;;;10.78;57.41;95954.81;4379641;32;20259;-60
2022/01/20 08:33:21;;;;;;;4.37;1.90;;;;;;;11.58;73.87;95949.75;4376666;32;20193;-59
2022/01/20 08:35:46;;;;;;;6.57;2.50;;;;;;;12.08;64.84;95947.56;4391007;32;20193;-59
2022/01/20 08:38:12;;;;;;;1.80;1.70;;;;;;;12.27;62.01;95947.56;4363354;32;20234;-64
2022/01/20 08:40:38;;;;;;;1.80;1.70;;;;;;;11.93;55.38;95953.87;4349008;32;20197;-61
2022/01/20 08:43:06;;;;;;;1.87;1.77;;;;;;;9.73;58.84;95952.53;4367786;32;20315;-61
2022/01/20 08:45:36;;;;;;;2.07;1.73;;;;;;;7.87;65.68;95970.88;4365603;32;20284;-61
2022/01/20 08:48:08;;;;;;;1.83;1.73;;;;;;;6.37;72.24;95967.88;4361586;32;20310;-61
2022/01/20 08:50:36;;;;;;;1.63;1.53;;;;;;;5.63;75.48;95971.03;4385189;32;20272;-61
2022/01/20 08:53:01;;;;;;;2.00;1.90;;;;;;;5.46;77.25;95978.19;4362887;32;20319;-61
2022/01/20 08:55:31;;;;;;;2.53;2.13;;;;;;;4.75;81.24;95985.91;4328279;32;20269;-61
2022/01/20 08:57:58;;;;;;;1.80;1.67;;;;;;;4.59;82.31;95972.75;4378841;32;20196;-61
2022/01/20 09:00:32;;;;;;;1.90;1.80;;;;;;;4.01;84.68;95987.81;4348886;32;20285;-60
2022/01/20 09:02:57;;;;;;;1.97;1.87;;;;;;;3.96;85.50;96003.47;4361015;32;20329;-60
2022/01/20 09:05:25;;;;;;;2.13;2.03;;;;;;;3.91;86.11;96006.03;4365572;32;20285;-59
2022/01/20 09:07:52;;;;;;;2.73;2.47;;;;;;;3.93;86.89;95996.09;4387176;32;20236;-60
2022/01/20 09:10:21;;;;;;;2.00;1.90;;;;;;;3.87;87.22;96002.28;4381232;32;20305;-60
2022/01/20 09:15:29;;;;;;;2.00;1.80;;;;;;;3.82;87.75;95973.31;4378214;32;20358;-60
2022/01/20 09:18:08;;;;;;;2.40;2.30;;;;;;;3.65;88.03;95972.44;4375261;32;20283;-60
2022/01/20 09:20:36;;;;;;;2.10;2.00;;;;;;;3.72;88.09;95973.12;4386085;32;20350;-60
2022/01/20 09:23:07;;;;;;;2.80;2.60;;;;;;;3.77;88.93;95976.63;4377688;32;22042;-60
2022/01/20 09:25:32;;;;;;;1.87;1.77;;;;;;;3.98;87.13;95993.53;4383907;32;20386;-60
2022/01/20 09:27:59;;;;;;;2.33;2.23;;;;;;;3.93;87.20;95990.84;4379664;32;20289;-60
2022/01/20 09:30:28;;;;;;;2.33;2.23;;;;;;;3.94;87.27;95997.69;4363769;32;20255;-60
2022/01/20 09:35:32;;;;;;;2.03;1.93;;;;;;;3.95;87.59;95999.25;4370548;32;20272;-61
2022/01/20 09:38:00;;;;;;;2.33;2.23;;;;;;;4.07;87.45;96013.13;4366967;32;20332;-60
2022/01/20 09:40:32;;;;;;;2.40;2.20;;;;;;;4.03;87.31;96005.97;4389889;32;20340;-61
2022/01/20 09:43:06;;;;;;;2.47;2.27;;;;;;;3.92;88.08;96015.50;4366567;32;20292;-60
2022/01/20 09:45:32;;;;;;;4.30;2.40;;;;;;;4.06;87.72;96016.78;4354612;32;20383;-60
2022/01/20 09:48:00;;;;;;;3.27;2.70;;;;;;;4.01;88.16;96037.69;4377685;32;20321;-60
2022/01/20 09:50:26;;;;;;;2.70;2.50;;;;;;;3.95;88.34;96024.72;4369660;32;20279;-61
2022/01/20 09:52:56;;;;;;;2.27;2.03;;;;;;;3.90;87.79;96016.75;4373650;32;20386;-61
2022/01/20 09:55:22;;;;;;;2.83;2.43;;;;;;;3.91;87.41;96007.84;4385825;32;20208;-61
2022/01/20 09:57:49;;;;;;;3.13;2.13;;;;;;;3.69;88.21;96005.88;4374907;32;20284;-61
2022/01/20 10:00:17;;;;;;;2.43;2.33;;;;;;;3.75;87.25;95998.87;4376957;32;20289;-61
2022/01/20 10:03:15;;;;;;;3.17;2.77;;;;;;;4.00;86.95;96007.22;4368794;32;20196;-62
2022/01/20 10:05:52;;;;;;;2.40;2.30;;;;;;;3.92;87.05;96007.63;4354071;32;20341;-61
2022/01/20 10:08:27;;;;;;;2.57;2.47;;;;;;;3.99;86.48;96012.72;4395211;32;20367;-60
2022/01/20 10:10:54;;;;;;;2.20;2.10;;;;;;;3.83;86.34;96022.13;4389885;32;20296;-61
2022/01/20 10:13:26;;;;;;;2.50;2.30;;;;;;;3.98;85.65;96014.53;4373025;32;20288;-61
2022/01/20 10:16:06;;;;;;;2.40;2.20;;;;;;;4.18;85.31;96010.69;4378052;32;20332;-61
2022/01/20 10:18:34;;;;;;;4.43;2.07;;;;;;;3.99;85.28;96010.88;4363976;32;20382;-60
2022/01/20 10:21:09;;;;;;;2.20;2.10;;;;;;;4.13;84.85;96019.28;4368356;32;20289;-60
2022/01/20 10:23:42;;;;;;;2.40;2.23;;;;;;;4.05;84.97;96019.66;4362145;32;20294;-60
2022/01/20 10:26:17;;;;;;;2.83;2.40;;;;;;;4.31;84.54;96013.03;4357088;32;20280;-60
2022/01/20 10:29:06;;;;;;;2.80;2.13;;;;;;;4.30;84.21;96016.69;4378272;32;20321;-66
2022/01/20 10:31:42;;;;;;;2.63;2.30;;;;;;;4.24;84.37;96015.00;4388808;32;20347;-60
2022/01/20 10:34:31;;;;;;;2.33;2.10;;;;;;;4.24;84.43;96017.63;4378703;32;20273;-60
2022/01/20 10:37:12;;;;;;;2.57;2.47;;;;;;;4.35;84.13;96001.81;4382158;32;20288;-61
2022/01/20 10:39:44;;;;;;;2.63;2.43;;;;;;;4.18;85.38;96003.59;4352678;32;20306;-60
2022/01/20 10:42:17;;;;;;;2.90;2.57;;;;;;;3.98;85.85;96009.28;4375404;32;20287;-62
2022/01/20 10:44:50;;;;;;;3.07;2.77;;;;;;;4.08;85.39;96004.22;4386823;32;20346;-59
2022/01/20 10:47:22;;;;;;;2.53;2.33;;;;;;;4.07;85.92;96023.63;4357127;32;20293;-61
2022/01/20 10:49:53;;;;;;;3.53;2.90;;;;;;;4.23;85.37;96010.78;4347242;32;20291;-59
2022/01/20 10:52:21;;;;;;;3.40;3.10;;;;;;;4.46;84.72;96013.28;4338932;32;20139;-60
2022/01/20 10:54:49;;;;;;;2.75;2.58;;;;;;;4.22;85.38;96006.56;4370108;32;20054;-62
2022/01/20 10:57:16;;;;;;;2.80;2.60;;;;;;;4.38;84.54;96001.31;4362530;32;20200;-60
2022/01/20 10:59:56;;;;;;;2.63;2.53;;;;;;;4.39;84.04;95994.25;4378102;32;20298;-60
2022/01/20 11:02:27;;;;;;;2.70;2.50;;;;;;;4.67;83.06;95990.78;4334511;32;20328;-60
2022/01/20 11:04:55;;;;;;;2.50;2.40;;;;;;;4.83;81.54;95990.75;4371507;32;20284;-59
2022/01/20 11:07:21;;;;;;;2.77;2.57;;;;;;;4.79;81.94;95994.91;4378757;32;20340;-63
2022/01/20 11:09:54;;;;;;;3.08;2.87;;;;;;;4.71;81.96;95997.16;4388280;32;20158;-60
2022/01/20 11:12:21;;;;;;;2.47;2.33;;;;;;;4.84;81.35;95999.44;4379818;32;20220;-59
2022/01/20 11:14:51;;;;;;;2.73;2.53;;;;;;;4.97;81.10;96000.97;4383826;32;20353;-61
2022/01/20 11:17:21;;;;;;;2.33;2.23;;;;;;;4.92;80.43;95988.53;4378135;32;20276;-60
2022/01/20 11:19:48;;;;;;;3.00;2.37;;;;;;;4.69;80.89;95986.06;4367377;32;20285;-59
2022/01/20 11:22:15;;;;;;;2.47;2.27;;;;;;;4.89;80.83;95985.59;4377559;32;20273;-60
2022/01/20 11:24:43;;;;;;;3.70;2.83;;;;;;;5.02;80.96;95987.88;4388206;32;20273;-60
2022/01/20 11:27:18;;;;;;;2.40;2.20;;;;;;;4.74;80.37;95986.97;4343970;32;20317;-59
2022/01/20 11:29:55;;;;;;;2.30;2.20;;;;;;;4.93;79.97;95984.87;4374659;32;20283;-60
2022/01/20 11:32:24;;;;;;;3.13;2.23;;;;;;;4.79;80.33;95970.44;4385703;32;20362;-59
2022/01/20 11:35:07;;;;;;;2.07;1.90;;;;;;;4.87;79.95;95971.88;4359938;32;20287;-59
2022/01/20 11:37:57;;;;;;;2.90;2.70;;;;;;;4.73;80.31;95972.22;4375148;32;20283;-59
2022/01/20 11:40:24;;;;;;;2.50;2.30;;;;;;;4.89;78.91;95957.47;4335268;32;20361;-59
2022/01/20 11:43:10;;;;;;;2.30;2.10;;;;;;;5.05;78.30;95955.84;4378547;32;20289;-60
2022/01/20 11:45:42;;;;;;;2.10;2.00;;;;;;;4.96;76.89;95954.69;4381654;32;20360;-59
2022/01/20 11:48:34;;;;;;;2.23;2.10;;;;;;;4.87;76.39;95942.97;4376032;32;20283;-60
2022/01/20 11:51:07;;;;;;;1.70;1.60;;;;;;;4.95;76.18;95953.09;4372321;32;20343;-59
2022/01/20 11:53:42;;;;;;;3.80;1.97;;;;;;;4.84;76.60;95939.00;4382284;32;21658;-59
2022/01/20 11:56:27;;;;;;;1.63;1.53;;;;;;;5.03;75.78;95934.25;4383014;32;20279;-59
2022/01/20 11:58:52;;;;;;;2.40;2.20;;;;;;;4.84;76.09;95931.91;4388596;32;20328;-59
2022/01/20 12:01:20;;;;;;;4.00;2.43;;;;;;;4.87;75.51;95924.56;4388780;32;20280;-59
2022/01/20 12:03:53;;;;;;;3.17;2.20;;;;;;;4.93;76.47;95929.66;4375295;32;20246;-59
2022/01/20 12:06:25;;;;;;;4.23;1.77;;;;;;;5.15;75.56;95919.16;4396786;32;20347;-59
2022/01/20 12:09:00;;;;;;;7.13;1.83;;;;;;;5.00;75.56;95932.09;4355165;32;20273;-59
2022/01/20 12:11:45;;;;;;;3.70;1.80;;;;;;;4.97;76.41;95948.38;4376445;32;20283;-60
2022/01/20 12:14:11;;;;;;;1.90;1.80;;;;;;;4.73;76.03;95932.00;4369503;32;20382;-59
2022/01/20 12:16:40;;;;;;;2.87;1.83;;;;;;;4.80;76.20;95943.94;4364709;32;20299;-59
2022/01/20 12:19:13;;;;;;;2.23;1.60;;;;;;;4.78;76.94;95938.13;4363806;32;20288;-59
2022/01/20 12:21:49;;;;;;;4.83;2.37;;;;;;;4.82;76.61;95941.84;4383081;32;20348;-59
2022/01/20 12:24:16;;;;;;;1.70;1.60;;;;;;;4.99;75.96;95920.78;4363038;32;20268;-63
2022/01/20 12:26:41;;;;;;;5.90;2.60;;;;;;;5.06;75.62;95915.37;4354541;32;20417;-58
2022/01/20 12:29:09;;;;;;;3.60;1.73;;;;;;;5.12;75.36;95917.03;4382626;32;20288;-59
2022/01/20 12:31:56;;;;;;;1.60;1.50;;;;;;;5.25;74.40;95916.66;4363578;32;20229;-59
2022/01/20 12:34:26;;;;;;;3.40;2.00;;;;;;;5.03;74.69;95916.63;4364818;32;20324;-60
2022/01/20 12:37:11;;;;;;;3.63;1.83;;;;;;;5.11;74.17;95903.09;4376876;32;20296;-58
2022/01/20 12:39:39;;;;;;;3.63;1.77;;;;;;;4.93;74.76;95890.22;4363038;32;20280;-60
2022/01/20 12:42:10;;;;;;;4.10;1.70;;;;;;;5.00;74.12;95895.28;4364879;32;20322;-60
2022/01/20 12:45:04;;;;;;;5.83;1.80;;;;;;;4.92;74.47;95898.34;4395209;32;20287;-58
2022/01/20 12:47:32;;;;;;;2.00;1.50;;;;;;;5.14;74.07;95892.09;4378218;32;20299;-59
2022/01/20 12:50:00;;;;;;;3.43;1.60;;;;;;;5.28;74.66;95855.69;4388758;32;20281;-59
2022/01/20 12:52:27;;;;;;;2.23;2.03;;;;;;;5.44;71.52;95867.94;4372416;32;20288;-60
2022/01/20 12:54:53;;;;;;;2.70;1.73;;;;;;;5.23;71.89;95876.66;4369103;32;20389;-59